createdAt,value
2023-02-03T18:34:31.590Z,83.23
2023-02-03T18:36:58.141Z,82.23
2023-02-03T18:39:24.697Z,81.65
2023-02-03T18:41:51.279Z,80.68
2023-02-03T18:44:18.241Z,80.92
2023-02-03T18:46:44.825Z,80.50
2023-02-03T18:49:11.945Z,80.99
2023-02-03T18:51:39.790Z,81.77
2023-02-03T18:54:06.391Z,81.18
2023-02-03T18:56:32.920Z,81.32
2023-02-03T18:58:59.596Z,81.61
2023-02-03T19:01:28.576Z,82.76
2023-02-03T19:03:55.847Z,82.03
2023-02-03T19:06:23.089Z,81.89
2023-02-03T19:08:51.646Z,81.18
2023-02-03T19:11:19.113Z,81.57
2023-02-03T19:13:45.782Z,81.71
2023-02-03T19:16:14.402Z,82.45
2023-02-03T19:18:41.079Z,82.50
2023-02-03T19:21:07.686Z,81.95
2023-02-03T19:23:34.299Z,81.69
2023-02-03T19:26:02.190Z,80.99
2023-02-03T19:28:31.231Z,80.43
2023-02-03T19:31:07.440Z,80.92
2023-02-03T19:33:35.354Z,82.25
2023-02-03T19:36:02.143Z,81.33
2023-02-03T19:38:28.766Z,81.02
2023-02-03T19:40:55.362Z,81.63
2023-02-03T19:43:23.295Z,81.46
2023-02-03T19:45:50.003Z,81.88
2023-02-03T19:48:16.730Z,82.05
2023-02-03T19:50:43.322Z,80.47
2023-02-03T19:53:09.876Z,81.83
2023-02-03T19:55:36.498Z,80.48
2023-02-03T19:58:03.097Z,80.04
2023-02-03T20:00:31.143Z,80.39
2023-02-03T20:02:57.688Z,81.17
2023-02-03T20:05:24.377Z,81.69
2023-02-03T20:07:50.946Z,80.39
2023-02-03T20:10:17.786Z,81.53
2023-02-03T20:12:44.331Z,81.09
2023-02-03T20:15:10.893Z,80.72
2023-02-03T20:17:38.838Z,81.11
2023-02-03T20:20:05.941Z,80.87
2023-02-03T20:22:32.556Z,80.37
2023-02-03T20:24:59.373Z,80.41
2023-02-03T20:27:26.149Z,79.81
2023-02-03T20:29:52.971Z,81.27
2023-02-03T20:32:19.782Z,78.95
2023-02-03T20:34:47.741Z,79.91
2023-02-03T20:37:14.437Z,79.60
2023-02-03T20:39:41.124Z,79.68
2023-02-03T20:42:14.218Z,78.70
2023-02-03T20:44:42.342Z,77.85
2023-02-03T20:47:10.649Z,78.65
2023-02-03T20:49:37.281Z,79.12
2023-02-03T20:52:11.023Z,80.01
2023-02-03T20:54:37.808Z,80.38
2023-02-03T20:57:09.971Z,80.03
2023-02-03T20:59:36.598Z,80.28
2023-02-03T21:02:03.346Z,81.02
2023-02-03T21:04:29.986Z,80.92
2023-02-03T21:06:56.777Z,81.33
2023-02-03T21:09:25.609Z,80.77
2023-02-03T21:11:52.565Z,80.31
2023-02-03T21:14:21.265Z,78.69
2023-02-03T21:16:48.010Z,80.03
2023-02-03T21:19:25.172Z,79.87
2023-02-03T21:21:51.775Z,78.16
2023-02-03T21:24:27.952Z,79.01
2023-02-03T21:26:55.251Z,80.07
2023-02-03T21:29:24.618Z,80.18
2023-02-03T21:31:53.154Z,80.25
2023-02-03T21:34:26.835Z,80.38
2023-02-03T21:36:53.891Z,81.00
2023-02-03T21:39:33.390Z,81.34
2023-02-03T21:42:21.961Z,81.43
2023-02-03T21:44:48.603Z,81.33
2023-02-03T21:47:18.061Z,81.33
2023-02-03T21:49:44.838Z,81.72
2023-02-03T21:52:12.963Z,81.62
2023-02-03T21:54:42.054Z,82.50
2023-02-03T21:57:13.416Z,81.27
2023-02-03T21:59:40.690Z,80.79
2023-02-03T22:02:38.367Z,80.89
2023-02-03T22:05:05.276Z,81.89
2023-02-03T22:07:31.868Z,80.48
2023-02-03T22:09:59.757Z,80.68
2023-02-03T22:12:26.279Z,79.24
2023-02-03T22:14:52.859Z,78.50
2023-02-03T22:17:19.395Z,79.48
2023-02-03T22:19:45.985Z,79.34
2023-02-03T22:22:12.604Z,79.97
2023-02-03T22:24:39.278Z,79.78
2023-02-03T22:27:07.137Z,79.75
2023-02-03T22:29:33.703Z,80.33
2023-02-03T22:32:00.655Z,79.86
2023-02-03T22:34:27.273Z,78.89
2023-02-03T22:36:53.933Z,79.22
2023-02-03T22:39:20.488Z,80.36
2023-02-03T22:41:47.224Z,81.47
2023-02-03T22:44:15.118Z,81.35
2023-02-03T22:46:41.808Z,81.86
2023-02-03T22:49:08.328Z,81.83
2023-02-03T22:51:34.900Z,80.83
2023-02-03T22:54:01.440Z,81.77
2023-02-03T22:56:28.005Z,81.87
2023-02-03T22:58:54.709Z,82.17
2023-02-03T23:01:22.649Z,81.95
2023-02-03T23:03:49.174Z,82.27
2023-02-03T23:06:15.732Z,83.42
2023-02-03T23:08:42.290Z,83.49
2023-02-03T23:11:08.828Z,83.60
2023-02-03T23:13:35.368Z,82.83
2023-02-03T23:16:02.174Z,82.94
2023-02-03T23:18:30.047Z,84.17
2023-02-03T23:20:56.701Z,84.60
2023-02-03T23:23:23.427Z,84.52
2023-02-03T23:25:50.023Z,84.31
2023-02-03T23:28:16.684Z,84.83
2023-02-03T23:30:43.328Z,85.34
2023-02-03T23:33:09.973Z,85.03
2023-02-03T23:35:37.872Z,85.02
2023-02-03T23:38:04.453Z,85.25
2023-02-03T23:40:31.271Z,85.63
2023-02-03T23:42:58.156Z,85.53
2023-02-03T23:45:24.842Z,85.54
2023-02-03T23:47:51.348Z,85.66
2023-02-03T23:50:18.400Z,85.41
2023-02-03T23:52:46.629Z,85.18
2023-02-03T23:55:15.871Z,85.16
2023-02-03T23:57:43.066Z,86.20
